sensor_id;sensor_type;location;lat;lon;timestamp;P1;durP1;ratioP1;P2;durP2;ratioP2
59147;SDS011;44930;52.878;6.168;2023-04-01T00:01:24;7.07;;;4.32;;
59147;SDS011;44930;52.878;6.168;2023-04-01T00:03:51;5.18;;;3.40;;
59147;SDS011;44930;52.878;6.168;2023-04-01T00:06:17;5.57;;;3.90;;
59147;SDS011;44930;52.878;6.168;2023-04-01T00:08:43;4.25;;;3.83;;
59147;SDS011;44930;52.878;6.168;2023-04-01T00:11:09;7.43;;;3.63;;
59147;SDS011;44930;52.878;6.168;2023-04-01T00:13:35;4.00;;;3.60;;
59147;SDS011;44930;52.878;6.168;2023-04-01T00:16:01;5.88;;;4.18;;
59147;SDS011;44930;52.878;6.168;2023-04-01T00:18:28;4.65;;;3.58;;
59147;SDS011;44930;52.878;6.168;2023-04-01T00:20:54;4.10;;;3.63;;
59147;SDS011;44930;52.878;6.168;2023-04-01T00:23:20;5.30;;;3.55;;
59147;SDS011;44930;52.878;6.168;2023-04-01T00:25:46;4.82;;;3.53;;
59147;SDS011;44930;52.878;6.168;2023-04-01T00:28:13;3.60;;;3.20;;
59147;SDS011;44930;52.878;6.168;2023-04-01T00:30:40;4.82;;;3.42;;
59147;SDS011;44930;52.878;6.168;2023-04-01T00:33:06;5.10;;;3.10;;
59147;SDS011;44930;52.878;6.168;2023-04-01T00:35:31;7.45;;;3.42;;
59147;SDS011;44930;52.878;6.168;2023-04-01T00:37:57;5.70;;;3.70;;
59147;SDS011;44930;52.878;6.168;2023-04-01T00:40:31;3.70;;;3.28;;
59147;SDS011;44930;52.878;6.168;2023-04-01T00:43:01;5.15;;;3.33;;
59147;SDS011;44930;52.878;6.168;2023-04-01T00:45:32;4.65;;;3.42;;
59147;SDS011;44930;52.878;6.168;2023-04-01T00:48:22;5.18;;;3.30;;
59147;SDS011;44930;52.878;6.168;2023-04-01T00:50:57;4.32;;;3.83;;
59147;SDS011;44930;52.878;6.168;2023-04-01T00:56:06;6.18;;;3.45;;
59147;SDS011;44930;52.878;6.168;2023-04-01T00:58:38;4.88;;;3.30;;
59147;SDS011;44930;52.878;6.168;2023-04-01T01:01:07;4.35;;;3.42;;
59147;SDS011;44930;52.878;6.168;2023-04-01T01:03:34;3.72;;;3.33;;
59147;SDS011;44930;52.878;6.168;2023-04-01T01:06:34;5.35;;;3.70;;
59147;SDS011;44930;52.878;6.168;2023-04-01T01:11:37;5.20;;;4.45;;
59147;SDS011;44930;52.878;6.168;2023-04-01T01:14:24;6.00;;;4.05;;
59147;SDS011;44930;52.878;6.168;2023-04-01T01:17:02;5.18;;;3.75;;
59147;SDS011;44930;52.878;6.168;2023-04-01T01:19:48;4.35;;;3.30;;
59147;SDS011;44930;52.878;6.168;2023-04-01T01:28:35;4.28;;;3.50;;
59147;SDS011;44930;52.878;6.168;2023-04-01T01:31:23;5.13;;;3.70;;
59147;SDS011;44930;52.878;6.168;2023-04-01T01:34:01;5.05;;;3.60;;
59147;SDS011;44930;52.878;6.168;2023-04-01T01:36:57;5.80;;;3.72;;
59147;SDS011;44930;52.878;6.168;2023-04-01T01:39:26;3.88;;;3.47;;
59147;SDS011;44930;52.878;6.168;2023-04-01T01:41:56;4.93;;;4.20;;
59147;SDS011;44930;52.878;6.168;2023-04-01T01:44:25;4.95;;;4.22;;
59147;SDS011;44930;52.878;6.168;2023-04-01T01:46:54;5.45;;;4.20;;
59147;SDS011;44930;52.878;6.168;2023-04-01T01:49:21;7.78;;;3.70;;
59147;SDS011;44930;52.878;6.168;2023-04-01T01:51:48;7.47;;;4.60;;
59147;SDS011;44930;52.878;6.168;2023-04-01T01:54:14;5.18;;;4.40;;
59147;SDS011;44930;52.878;6.168;2023-04-01T01:56:46;6.05;;;4.03;;
59147;SDS011;44930;52.878;6.168;2023-04-01T01:59:16;5.35;;;4.70;;
59147;SDS011;44930;52.878;6.168;2023-04-01T02:01:45;7.30;;;4.43;;
59147;SDS011;44930;52.878;6.168;2023-04-01T02:04:14;5.00;;;4.40;;
59147;SDS011;44930;52.878;6.168;2023-04-01T02:06:45;6.07;;;4.32;;
59147;SDS011;44930;52.878;6.168;2023-04-01T02:09:17;4.72;;;4.03;;
59147;SDS011;44930;52.878;6.168;2023-04-01T02:11:48;5.93;;;4.00;;
59147;SDS011;44930;52.878;6.168;2023-04-01T02:14:17;6.70;;;5.28;;
59147;SDS011;44930;52.878;6.168;2023-04-01T02:16:57;9.68;;;4.20;;
59147;SDS011;44930;52.878;6.168;2023-04-01T02:19:32;5.90;;;4.88;;
59147;SDS011;44930;52.878;6.168;2023-04-01T02:22:05;7.68;;;4.70;;
59147;SDS011;44930;52.878;6.168;2023-04-01T02:24:36;5.40;;;3.90;;
59147;SDS011;44930;52.878;6.168;2023-04-01T02:27:04;7.85;;;4.43;;
59147;SDS011;44930;52.878;6.168;2023-04-01T02:29:30;6.10;;;4.45;;
59147;SDS011;44930;52.878;6.168;2023-04-01T02:31:56;6.80;;;4.35;;
59147;SDS011;44930;52.878;6.168;2023-04-01T02:34:23;4.10;;;3.70;;
59147;SDS011;44930;52.878;6.168;2023-04-01T02:36:50;4.95;;;3.85;;
59147;SDS011;44930;52.878;6.168;2023-04-01T02:39:16;4.90;;;3.85;;
59147;SDS011;44930;52.878;6.168;2023-04-01T02:41:43;4.85;;;4.07;;
59147;SDS011;44930;52.878;6.168;2023-04-01T02:44:10;5.13;;;4.18;;
59147;SDS011;44930;52.878;6.168;2023-04-01T02:46:37;6.30;;;3.45;;
59147;SDS011;44930;52.878;6.168;2023-04-01T02:49:03;4.78;;;4.00;;
59147;SDS011;44930;52.878;6.168;2023-04-01T02:51:29;4.70;;;3.47;;
59147;SDS011;44930;52.878;6.168;2023-04-01T02:53:54;4.95;;;4.15;;
59147;SDS011;44930;52.878;6.168;2023-04-01T02:56:20;4.28;;;3.60;;
59147;SDS011;44930;52.878;6.168;2023-04-01T02:58:46;5.40;;;3.63;;
59147;SDS011;44930;52.878;6.168;2023-04-01T03:01:12;4.57;;;3.50;;
59147;SDS011;44930;52.878;6.168;2023-04-01T03:03:37;4.22;;;3.45;;
59147;SDS011;44930;52.878;6.168;2023-04-01T03:06:07;4.32;;;3.20;;
59147;SDS011;44930;52.878;6.168;2023-04-01T03:08:33;7.78;;;3.70;;
59147;SDS011;44930;52.878;6.168;2023-04-01T03:10:59;5.30;;;3.40;;
59147;SDS011;44930;52.878;6.168;2023-04-01T03:13:25;4.57;;;3.30;;
59147;SDS011;44930;52.878;6.168;2023-04-01T03:15:51;4.13;;;2.88;;
59147;SDS011;44930;52.878;6.168;2023-04-01T03:18:17;3.78;;;2.85;;
59147;SDS011;44930;52.878;6.168;2023-04-01T03:20:42;4.57;;;3.03;;
59147;SDS011;44930;52.878;6.168;2023-04-01T03:23:08;4.22;;;2.97;;
59147;SDS011;44930;52.878;6.168;2023-04-01T03:25:34;4.45;;;2.88;;
59147;SDS011;44930;52.878;6.168;2023-04-01T03:27:59;3.35;;;2.55;;
59147;SDS011;44930;52.878;6.168;2023-04-01T03:30:25;3.92;;;3.00;;
59147;SDS011;44930;52.878;6.168;2023-04-01T03:32:51;3.50;;;3.10;;
59147;SDS011;44930;52.878;6.168;2023-04-01T03:35:17;5.10;;;3.53;;
59147;SDS011;44930;52.878;6.168;2023-04-01T03:37:43;4.22;;;3.08;;
59147;SDS011;44930;52.878;6.168;2023-04-01T03:40:08;3.88;;;3.03;;
59147;SDS011;44930;52.878;6.168;2023-04-01T03:42:34;4.30;;;3.22;;
59147;SDS011;44930;52.878;6.168;2023-04-01T03:45:00;3.83;;;3.10;;
59147;SDS011;44930;52.878;6.168;2023-04-01T03:47:27;5.95;;;3.65;;
59147;SDS011;44930;52.878;6.168;2023-04-01T03:49:53;4.28;;;3.20;;
59147;SDS011;44930;52.878;6.168;2023-04-01T03:52:19;4.35;;;3.28;;
59147;SDS011;44930;52.878;6.168;2023-04-01T03:54:44;4.00;;;3.42;;
59147;SDS011;44930;52.878;6.168;2023-04-01T03:57:10;4.00;;;3.20;;
59147;SDS011;44930;52.878;6.168;2023-04-01T03:59:35;4.15;;;3.47;;
59147;SDS011;44930;52.878;6.168;2023-04-01T04:02:01;5.55;;;3.80;;
59147;SDS011;44930;52.878;6.168;2023-04-01T04:04:27;5.10;;;3.80;;
59147;SDS011;44930;52.878;6.168;2023-04-01T04:06:53;3.95;;;3.50;;
59147;SDS011;44930;52.878;6.168;2023-04-01T04:09:19;4.68;;;3.60;;
59147;SDS011;44930;52.878;6.168;2023-04-01T04:11:44;5.07;;;3.90;;
59147;SDS011;44930;52.878;6.168;2023-04-01T04:14:10;3.92;;;3.03;;
59147;SDS011;44930;52.878;6.168;2023-04-01T04:16:36;4.28;;;3.60;;
59147;SDS011;44930;52.878;6.168;2023-04-01T04:19:02;4.18;;;3.63;;
59147;SDS011;44930;52.878;6.168;2023-04-01T04:21:28;6.53;;;3.33;;
59147;SDS011;44930;52.878;6.168;2023-04-01T04:23:54;4.55;;;3.88;;
59147;SDS011;44930;52.878;6.168;2023-04-01T04:26:19;4.68;;;3.50;;
59147;SDS011;44930;52.878;6.168;2023-04-01T04:28:45;6.75;;;4.03;;
59147;SDS011;44930;52.878;6.168;2023-04-01T04:31:11;7.75;;;4.43;;
59147;SDS011;44930;52.878;6.168;2023-04-01T04:33:37;4.47;;;3.58;;
59147;SDS011;44930;52.878;6.168;2023-04-01T04:36:02;7.15;;;3.72;;
59147;SDS011;44930;52.878;6.168;2023-04-01T04:38:29;4.80;;;3.65;;
59147;SDS011;44930;52.878;6.168;2023-04-01T04:40:55;6.20;;;3.90;;
59147;SDS011;44930;52.878;6.168;2023-04-01T04:43:21;6.03;;;3.67;;
59147;SDS011;44930;52.878;6.168;2023-04-01T04:45:47;7.05;;;3.95;;
59147;SDS011;44930;52.878;6.168;2023-04-01T04:48:13;4.80;;;3.63;;
59147;SDS011;44930;52.878;6.168;2023-04-01T04:50:43;5.15;;;4.32;;
59147;SDS011;44930;52.878;6.168;2023-04-01T04:53:13;4.32;;;3.60;;
59147;SDS011;44930;52.878;6.168;2023-04-01T04:55:46;5.78;;;4.15;;
59147;SDS011;44930;52.878;6.168;2023-04-01T04:58:12;4.97;;;3.97;;
59147;SDS011;44930;52.878;6.168;2023-04-01T05:00:38;4.82;;;4.03;;
59147;SDS011;44930;52.878;6.168;2023-04-01T05:03:04;7.07;;;4.22;;
59147;SDS011;44930;52.878;6.168;2023-04-01T05:05:30;5.22;;;4.13;;
59147;SDS011;44930;52.878;6.168;2023-04-01T05:07:55;4.07;;;3.13;;
59147;SDS011;44930;52.878;6.168;2023-04-01T05:10:21;4.63;;;3.60;;
59147;SDS011;44930;52.878;6.168;2023-04-01T05:12:46;3.95;;;3.28;;
59147;SDS011;44930;52.878;6.168;2023-04-01T05:15:12;4.93;;;3.63;;
59147;SDS011;44930;52.878;6.168;2023-04-01T05:17:37;5.35;;;3.63;;
59147;SDS011;44930;52.878;6.168;2023-04-01T05:20:03;4.50;;;3.28;;
59147;SDS011;44930;52.878;6.168;2023-04-01T05:22:30;3.85;;;2.97;;
59147;SDS011;44930;52.878;6.168;2023-04-01T05:24:55;4.35;;;3.10;;
59147;SDS011;44930;52.878;6.168;2023-04-01T05:27:21;4.82;;;3.42;;
59147;SDS011;44930;52.878;6.168;2023-04-01T05:29:47;5.00;;;3.58;;
59147;SDS011;44930;52.878;6.168;2023-04-01T05:32:12;5.70;;;3.60;;
59147;SDS011;44930;52.878;6.168;2023-04-01T05:34:38;5.78;;;3.90;;
59147;SDS011;44930;52.878;6.168;2023-04-01T05:37:03;6.55;;;4.03;;
59147;SDS011;44930;52.878;6.168;2023-04-01T05:39:29;6.93;;;4.07;;
59147;SDS011;44930;52.878;6.168;2023-04-01T05:41:54;5.07;;;3.45;;
59147;SDS011;44930;52.878;6.168;2023-04-01T05:44:20;6.75;;;4.35;;
59147;SDS011;44930;52.878;6.168;2023-04-01T05:46:46;7.47;;;3.80;;
59147;SDS011;44930;52.878;6.168;2023-04-01T05:49:12;8.13;;;3.97;;
59147;SDS011;44930;52.878;6.168;2023-04-01T05:51:37;7.25;;;4.18;;
59147;SDS011;44930;52.878;6.168;2023-04-01T05:54:04;6.60;;;3.92;;
59147;SDS011;44930;52.878;6.168;2023-04-01T05:56:30;5.38;;;3.67;;
59147;SDS011;44930;52.878;6.168;2023-04-01T05:58:55;8.82;;;4.00;;
59147;SDS011;44930;52.878;6.168;2023-04-01T06:01:21;6.95;;;4.25;;
59147;SDS011;44930;52.878;6.168;2023-04-01T06:03:47;6.22;;;4.50;;
59147;SDS011;44930;52.878;6.168;2023-04-01T06:06:14;9.02;;;4.38;;
59147;SDS011;44930;52.878;6.168;2023-04-01T06:08:50;7.05;;;4.55;;
59147;SDS011;44930;52.878;6.168;2023-04-01T06:19:40;5.88;;;4.05;;
59147;SDS011;44930;52.878;6.168;2023-04-01T06:30:38;5.97;;;4.68;;
59147;SDS011;44930;52.878;6.168;2023-04-01T06:50:29;10.45;;;4.95;;
59147;SDS011;44930;52.878;6.168;2023-04-01T06:53:17;7.50;;;4.97;;
59147;SDS011;44930;52.878;6.168;2023-04-01T06:58:29;6.60;;;5.03;;
59147;SDS011;44930;52.878;6.168;2023-04-01T07:01:20;8.45;;;5.45;;
59147;SDS011;44930;52.878;6.168;2023-04-01T07:04:14;7.80;;;5.45;;
59147;SDS011;44930;52.878;6.168;2023-04-01T07:06:53;7.90;;;5.10;;
59147;SDS011;44930;52.878;6.168;2023-04-01T07:09:24;5.75;;;4.47;;
59147;SDS011;44930;52.878;6.168;2023-04-01T07:11:53;7.00;;;4.63;;
59147;SDS011;44930;52.878;6.168;2023-04-01T07:14:34;7.82;;;5.18;;
59147;SDS011;44930;52.878;6.168;2023-04-01T07:17:23;5.57;;;4.75;;
59147;SDS011;44930;52.878;6.168;2023-04-01T07:25:20;4.70;;;3.90;;
59147;SDS011;44930;52.878;6.168;2023-04-01T07:27:50;5.32;;;3.72;;
59147;SDS011;44930;52.878;6.168;2023-04-01T07:30:20;5.32;;;4.55;;
59147;SDS011;44930;52.878;6.168;2023-04-01T07:32:51;5.43;;;3.90;;
59147;SDS011;44930;52.878;6.168;2023-04-01T07:35:24;5.57;;;4.10;;
59147;SDS011;44930;52.878;6.168;2023-04-01T07:38:14;5.13;;;4.47;;
59147;SDS011;44930;52.878;6.168;2023-04-01T07:44:04;4.03;;;3.20;;
59147;SDS011;44930;52.878;6.168;2023-04-01T07:46:43;4.53;;;3.40;;
59147;SDS011;44930;52.878;6.168;2023-04-01T07:54:13;4.05;;;3.35;;
59147;SDS011;44930;52.878;6.168;2023-04-01T07:57:22;4.85;;;3.67;;
59147;SDS011;44930;52.878;6.168;2023-04-01T08:05:29;6.95;;;5.50;;
59147;SDS011;44930;52.878;6.168;2023-04-01T08:21:25;10.77;;;8.02;;
59147;SDS011;44930;52.878;6.168;2023-04-01T08:23:58;9.48;;;7.82;;
59147;SDS011;44930;52.878;6.168;2023-04-01T08:26:35;10.35;;;8.00;;
59147;SDS011;44930;52.878;6.168;2023-04-01T08:29:13;11.40;;;8.50;;
59147;SDS011;44930;52.878;6.168;2023-04-01T08:31:46;11.43;;;8.30;;
59147;SDS011;44930;52.878;6.168;2023-04-01T08:34:34;10.10;;;8.30;;
59147;SDS011;44930;52.878;6.168;2023-04-01T08:37:13;11.45;;;7.75;;
59147;SDS011;44930;52.878;6.168;2023-04-01T08:39:54;10.18;;;7.85;;
59147;SDS011;44930;52.878;6.168;2023-04-01T08:48:27;13.32;;;9.43;;
59147;SDS011;44930;52.878;6.168;2023-04-01T09:24:56;15.38;;;11.52;;
59147;SDS011;44930;52.878;6.168;2023-04-01T09:30:24;19.42;;;13.20;;
59147;SDS011;44930;52.878;6.168;2023-04-01T09:35:48;14.25;;;11.48;;
59147;SDS011;44930;52.878;6.168;2023-04-01T09:44:14;13.57;;;10.57;;
59147;SDS011;44930;52.878;6.168;2023-04-01T09:55:23;14.48;;;10.65;;
59147;SDS011;44930;52.878;6.168;2023-04-01T10:01:11;16.83;;;10.55;;
59147;SDS011;44930;52.878;6.168;2023-04-01T10:12:42;13.23;;;10.57;;
59147;SDS011;44930;52.878;6.168;2023-04-01T10:15:29;13.93;;;10.05;;
59147;SDS011;44930;52.878;6.168;2023-04-01T10:26:03;14.68;;;10.82;;
59147;SDS011;44930;52.878;6.168;2023-04-01T10:32:01;15.38;;;11.27;;
59147;SDS011;44930;52.878;6.168;2023-04-01T10:34:50;11.82;;;10.15;;
59147;SDS011;44930;52.878;6.168;2023-04-01T11:09:03;4.90;;;3.38;;
59147;SDS011;44930;52.878;6.168;2023-04-01T11:20:20;5.93;;;4.50;;
59147;SDS011;44930;52.878;6.168;2023-04-01T11:34:05;4.72;;;4.18;;
59147;SDS011;44930;52.878;6.168;2023-04-01T11:45:27;5.63;;;4.75;;
59147;SDS011;44930;52.878;6.168;2023-04-01T11:50:57;5.57;;;4.10;;
59147;SDS011;44930;52.878;6.168;2023-04-01T11:56:39;6.35;;;4.25;;
59147;SDS011;44930;52.878;6.168;2023-04-01T12:02:08;6.03;;;4.07;;
59147;SDS011;44930;52.878;6.168;2023-04-01T12:04:41;5.90;;;3.70;;
59147;SDS011;44930;52.878;6.168;2023-04-01T12:07:27;4.22;;;3.58;;
59147;SDS011;44930;52.878;6.168;2023-04-01T12:10:26;4.32;;;3.65;;
59147;SDS011;44930;52.878;6.168;2023-04-01T12:13:28;5.75;;;3.08;;
59147;SDS011;44930;52.878;6.168;2023-04-01T12:16:41;3.58;;;3.10;;
59147;SDS011;44930;52.878;6.168;2023-04-01T12:30:15;3.25;;;2.47;;
59147;SDS011;44930;52.878;6.168;2023-04-01T12:39:00;3.70;;;2.88;;
59147;SDS011;44930;52.878;6.168;2023-04-01T12:53:10;3.55;;;3.17;;
59147;SDS011;44930;52.878;6.168;2023-04-01T12:55:59;2.80;;;2.42;;
59147;SDS011;44930;52.878;6.168;2023-04-01T12:58:36;3.53;;;2.90;;
59147;SDS011;44930;52.878;6.168;2023-04-01T13:01:35;4.18;;;3.30;;
59147;SDS011;44930;52.878;6.168;2023-04-01T13:04:33;3.28;;;2.60;;
59147;SDS011;44930;52.878;6.168;2023-04-01T13:07:45;4.03;;;3.10;;
59147;SDS011;44930;52.878;6.168;2023-04-01T13:15:54;3.45;;;2.80;;
59147;SDS011;44930;52.878;6.168;2023-04-01T13:18:31;4.80;;;2.38;;
59147;SDS011;44930;52.878;6.168;2023-04-01T13:29:07;3.60;;;2.00;;
59147;SDS011;44930;52.878;6.168;2023-04-01T13:31:37;2.50;;;2.03;;
59147;SDS011;44930;52.878;6.168;2023-04-01T13:34:27;3.15;;;2.10;;
59147;SDS011;44930;52.878;6.168;2023-04-01T13:40:15;2.65;;;2.30;;
59147;SDS011;44930;52.878;6.168;2023-04-01T13:46:12;2.63;;;2.00;;
59147;SDS011;44930;52.878;6.168;2023-04-01T13:48:50;3.22;;;2.33;;
59147;SDS011;44930;52.878;6.168;2023-04-01T13:57:19;3.15;;;2.50;;
59147;SDS011;44930;52.878;6.168;2023-04-01T13:59:53;3.60;;;2.50;;
59147;SDS011;44930;52.878;6.168;2023-04-01T14:05:15;2.97;;;2.20;;
59147;SDS011;44930;52.878;6.168;2023-04-01T14:19:42;3.13;;;2.20;;
59147;SDS011;44930;52.878;6.168;2023-04-01T14:22:13;3.42;;;2.65;;
59147;SDS011;44930;52.878;6.168;2023-04-01T14:27:55;3.90;;;2.15;;
59147;SDS011;44930;52.878;6.168;2023-04-01T14:30:42;3.05;;;2.03;;
59147;SDS011;44930;52.878;6.168;2023-04-01T14:33:19;4.28;;;2.65;;
59147;SDS011;44930;52.878;6.168;2023-04-01T14:35:49;4.60;;;2.45;;
59147;SDS011;44930;52.878;6.168;2023-04-01T14:38:36;2.05;;;1.67;;
59147;SDS011;44930;52.878;6.168;2023-04-01T14:51:55;2.35;;;1.83;;
59147;SDS011;44930;52.878;6.168;2023-04-01T14:54:35;3.00;;;1.80;;
59147;SDS011;44930;52.878;6.168;2023-04-01T14:57:10;1.88;;;1.50;;
59147;SDS011;44930;52.878;6.168;2023-04-01T14:59:39;3.10;;;1.92;;
59147;SDS011;44930;52.878;6.168;2023-04-01T15:10:39;2.40;;;1.83;;
59147;SDS011;44930;52.878;6.168;2023-04-01T15:13:24;1.90;;;1.50;;
59147;SDS011;44930;52.878;6.168;2023-04-01T15:19:11;2.10;;;1.60;;
59147;SDS011;44930;52.878;6.168;2023-04-01T15:25:01;2.20;;;1.80;;
59147;SDS011;44930;52.878;6.168;2023-04-01T15:30:35;2.20;;;1.50;;
59147;SDS011;44930;52.878;6.168;2023-04-01T15:33:13;3.92;;;2.05;;
59147;SDS011;44930;52.878;6.168;2023-04-01T15:38:53;2.33;;;1.88;;
59147;SDS011;44930;52.878;6.168;2023-04-01T15:49:52;3.45;;;2.13;;
59147;SDS011;44930;52.878;6.168;2023-04-01T15:52:23;3.13;;;2.00;;
59147;SDS011;44930;52.878;6.168;2023-04-01T15:55:21;3.53;;;1.77;;
59147;SDS011;44930;52.878;6.168;2023-04-01T16:00:25;2.47;;;1.60;;
59147;SDS011;44930;52.878;6.168;2023-04-01T16:08:09;1.95;;;1.65;;
59147;SDS011;44930;52.878;6.168;2023-04-01T16:10:38;2.15;;;1.73;;
59147;SDS011;44930;52.878;6.168;2023-04-01T16:15:56;4.55;;;1.83;;
59147;SDS011;44930;52.878;6.168;2023-04-01T16:21:33;3.22;;;1.90;;
59147;SDS011;44930;52.878;6.168;2023-04-01T16:27:00;3.85;;;2.40;;
59147;SDS011;44930;52.878;6.168;2023-04-01T16:32:14;3.00;;;2.45;;
59147;SDS011;44930;52.878;6.168;2023-04-01T16:37:53;4.57;;;2.70;;
59147;SDS011;44930;52.878;6.168;2023-04-01T16:43:28;5.65;;;3.03;;
59147;SDS011;44930;52.878;6.168;2023-04-01T16:56:55;2.78;;;2.40;;
59147;SDS011;44930;52.878;6.168;2023-04-01T16:59:35;4.20;;;2.92;;
59147;SDS011;44930;52.878;6.168;2023-04-01T17:02:04;3.47;;;2.50;;
59147;SDS011;44930;52.878;6.168;2023-04-01T17:07:35;3.60;;;2.60;;
59147;SDS011;44930;52.878;6.168;2023-04-01T17:13:20;4.00;;;3.03;;
59147;SDS011;44930;52.878;6.168;2023-04-01T17:21:38;6.18;;;3.45;;
59147;SDS011;44930;52.878;6.168;2023-04-01T17:24:26;4.45;;;3.38;;
59147;SDS011;44930;52.878;6.168;2023-04-01T17:26:52;7.72;;;3.92;;
59147;SDS011;44930;52.878;6.168;2023-04-01T17:35:18;6.80;;;3.58;;
59147;SDS011;44930;52.878;6.168;2023-04-01T17:37:57;7.35;;;3.53;;
59147;SDS011;44930;52.878;6.168;2023-04-01T17:43:22;6.88;;;3.85;;
59147;SDS011;44930;52.878;6.168;2023-04-01T17:46:24;6.38;;;3.80;;
59147;SDS011;44930;52.878;6.168;2023-04-01T17:49:08;5.22;;;3.90;;
59147;SDS011;44930;52.878;6.168;2023-04-01T17:51:43;6.75;;;3.80;;
59147;SDS011;44930;52.878;6.168;2023-04-01T17:54:19;6.25;;;3.50;;
59147;SDS011;44930;52.878;6.168;2023-04-01T18:05:12;8.43;;;4.45;;
59147;SDS011;44930;52.878;6.168;2023-04-01T18:08:08;5.18;;;4.13;;
59147;SDS011;44930;52.878;6.168;2023-04-01T18:16:08;7.53;;;4.28;;
59147;SDS011;44930;52.878;6.168;2023-04-01T18:27:03;4.85;;;3.92;;
59147;SDS011;44930;52.878;6.168;2023-04-01T18:32:13;6.78;;;4.50;;
59147;SDS011;44930;52.878;6.168;2023-04-01T18:37:50;9.18;;;4.50;;
59147;SDS011;44930;52.878;6.168;2023-04-01T18:51:11;5.30;;;3.70;;
59147;SDS011;44930;52.878;6.168;2023-04-01T18:53:52;8.38;;;4.18;;
59147;SDS011;44930;52.878;6.168;2023-04-01T18:56:30;6.90;;;4.40;;
59147;SDS011;44930;52.878;6.168;2023-04-01T18:59:04;8.57;;;4.15;;
59147;SDS011;44930;52.878;6.168;2023-04-01T19:01:43;5.13;;;4.00;;
59147;SDS011;44930;52.878;6.168;2023-04-01T19:04:28;7.03;;;4.65;;
59147;SDS011;44930;52.878;6.168;2023-04-01T19:06:59;6.60;;;4.05;;
59147;SDS011;44930;52.878;6.168;2023-04-01T19:23:09;12.68;;;4.63;;
59147;SDS011;44930;52.878;6.168;2023-04-01T19:25:57;7.50;;;4.55;;
59147;SDS011;44930;52.878;6.168;2023-04-01T19:39:09;8.98;;;4.68;;
59147;SDS011;44930;52.878;6.168;2023-04-01T19:42:04;6.88;;;4.10;;
59147;SDS011;44930;52.878;6.168;2023-04-01T19:44:53;6.43;;;4.70;;
59147;SDS011;44930;52.878;6.168;2023-04-01T19:52:53;13.13;;;6.40;;
59147;SDS011;44930;52.878;6.168;2023-04-01T20:00:44;8.98;;;4.65;;
59147;SDS011;44930;52.878;6.168;2023-04-01T20:08:39;7.70;;;4.88;;
59147;SDS011;44930;52.878;6.168;2023-04-01T20:11:27;6.72;;;4.78;;
59147;SDS011;44930;52.878;6.168;2023-04-01T20:14:07;10.73;;;6.50;;
59147;SDS011;44930;52.878;6.168;2023-04-01T20:19:37;8.70;;;5.43;;
59147;SDS011;44930;52.878;6.168;2023-04-01T20:22:20;11.00;;;6.18;;
59147;SDS011;44930;52.878;6.168;2023-04-01T20:25:02;8.25;;;5.07;;
59147;SDS011;44930;52.878;6.168;2023-04-01T20:28:01;10.48;;;6.72;;
59147;SDS011;44930;52.878;6.168;2023-04-01T20:30:34;10.02;;;6.35;;
59147;SDS011;44930;52.878;6.168;2023-04-01T20:33:08;13.95;;;6.35;;
59147;SDS011;44930;52.878;6.168;2023-04-01T20:46:27;9.95;;;6.43;;
59147;SDS011;44930;52.878;6.168;2023-04-01T20:54:47;10.15;;;6.10;;
59147;SDS011;44930;52.878;6.168;2023-04-01T21:06:29;11.07;;;6.25;;
59147;SDS011;44930;52.878;6.168;2023-04-01T21:09:07;11.63;;;5.40;;
59147;SDS011;44930;52.878;6.168;2023-04-01T21:27:31;11.75;;;5.78;;
59147;SDS011;44930;52.878;6.168;2023-04-01T21:38:31;10.55;;;5.35;;
59147;SDS011;44930;52.878;6.168;2023-04-01T21:41:17;11.27;;;5.47;;
59147;SDS011;44930;52.878;6.168;2023-04-01T21:46:54;10.50;;;5.70;;
59147;SDS011;44930;52.878;6.168;2023-04-01T21:52:40;9.00;;;4.97;;
59147;SDS011;44930;52.878;6.168;2023-04-01T21:55:28;11.45;;;5.05;;
59147;SDS011;44930;52.878;6.168;2023-04-01T22:00:32;14.23;;;6.45;;
59147;SDS011;44930;52.878;6.168;2023-04-01T22:03:27;11.27;;;5.40;;
59147;SDS011;44930;52.878;6.168;2023-04-01T22:06:15;8.18;;;4.90;;
59147;SDS011;44930;52.878;6.168;2023-04-01T22:14:14;9.23;;;4.72;;
59147;SDS011;44930;52.878;6.168;2023-04-01T22:16:54;9.23;;;4.57;;
59147;SDS011;44930;52.878;6.168;2023-04-01T22:19:42;8.80;;;4.35;;
59147;SDS011;44930;52.878;6.168;2023-04-01T22:31:16;10.73;;;4.93;;
59147;SDS011;44930;52.878;6.168;2023-04-01T22:34:00;8.75;;;5.43;;
59147;SDS011;44930;52.878;6.168;2023-04-01T22:36:37;5.60;;;3.97;;
59147;SDS011;44930;52.878;6.168;2023-04-01T22:41:52;7.50;;;4.82;;
59147;SDS011;44930;52.878;6.168;2023-04-01T22:49:41;7.45;;;4.40;;
59147;SDS011;44930;52.878;6.168;2023-04-01T22:52:15;8.65;;;5.07;;
59147;SDS011;44930;52.878;6.168;2023-04-01T22:55:03;10.88;;;4.13;;
59147;SDS011;44930;52.878;6.168;2023-04-01T23:02:38;9.32;;;4.10;;
59147;SDS011;44930;52.878;6.168;2023-04-01T23:05:09;9.55;;;4.68;;
59147;SDS011;44930;52.878;6.168;2023-04-01T23:07:41;9.27;;;6.47;;
59147;SDS011;44930;52.878;6.168;2023-04-01T23:12:58;7.85;;;4.68;;
59147;SDS011;44930;52.878;6.168;2023-04-01T23:15:24;8.10;;;4.43;;
59147;SDS011;44930;52.878;6.168;2023-04-01T23:20:50;7.65;;;4.50;;
59147;SDS011;44930;52.878;6.168;2023-04-01T23:26:39;10.63;;;5.15;;
59147;SDS011;44930;52.878;6.168;2023-04-01T23:29:17;7.22;;;4.82;;
59147;SDS011;44930;52.878;6.168;2023-04-01T23:31:45;12.07;;;4.90;;
59147;SDS011;44930;52.878;6.168;2023-04-01T23:34:32;6.85;;;3.88;;
59147;SDS011;44930;52.878;6.168;2023-04-01T23:37:04;6.55;;;3.95;;
59147;SDS011;44930;52.878;6.168;2023-04-01T23:45:04;6.47;;;3.40;;
59147;SDS011;44930;52.878;6.168;2023-04-01T23:47:42;10.85;;;4.43;;
59147;SDS011;44930;52.878;6.168;2023-04-01T23:50:11;6.85;;;3.65;;
59147;SDS011;44930;52.878;6.168;2023-04-01T23:52:43;10.23;;;4.68;;
59147;SDS011;44930;52.878;6.168;2023-04-01T23:55:22;8.25;;;4.03;;
